Time;durP1;ratioP1;P1;durP2;ratioP2;P2;SDS_P1;SDS_P2;PMS_P1;PMS_P2;Temp;Humidity;BMP_temperature;BMP_pressure;BME280_temperature;BME280_humidity;BME280_pressure;Samples;Min_cycle;Max_cycle;Signal;HPM_P1;HPM_P2
2021/09/21 00:01:05;;;;;;;;;;;;;;;29.92;42.22;100706.13;5164670;27;1918;-37
2021/09/21 00:03:30;;;;;;;;;;;;;;;30.03;41.92;100712.00;5157843;27;834;-34
2021/09/21 00:05:56;;;;;;;;;;;;;;;29.95;42.26;100718.44;5164169;27;869;-34
2021/09/21 00:08:21;;;;;;;;;;;;;;;30.06;41.71;100717.00;5163461;27;977;-45
2021/09/21 00:10:46;;;;;;;;;;;;;;;29.98;42.04;100720.72;5164487;27;866;-42
2021/09/21 00:13:11;;;;;;;;;;;;;;;29.95;42.08;100721.13;5164538;27;803;-33
2021/09/21 00:15:37;;;;;;;;;;;;;;;29.93;42.21;100721.34;5163870;27;898;-37
2021/09/21 00:18:02;;;;;;;;;;;;;;;29.87;42.37;100724.03;5164814;27;743;-35
2021/09/21 00:20:27;;;;;;;;;;;;;;;29.94;42.35;100738.47;5164210;27;1905;-45
2021/09/21 00:22:52;;;;;;;;;;;;;;;29.99;42.21;100740.56;5163662;27;996;-35
2021/09/21 00:25:18;;;;;;;;;;;;;;;29.92;42.33;100733.25;5164278;27;921;-37
2021/09/21 00:27:43;;;;;;;;;;;;;;;29.97;42.24;100726.34;5164266;27;812;-33
2021/09/21 00:30:09;;;;;;;;;;;;;;;29.93;42.16;100734.91;5164135;27;798;-43
2021/09/21 00:32:34;;;;;;;;;;;;;;;29.97;42.04;100731.78;5164483;27;775;-34
2021/09/21 00:34:59;;;;;;;;;;;;;;;29.93;42.39;100734.06;5164171;27;791;-47
2021/09/21 00:37:25;;;;;;;;;;;;;;;29.97;42.10;100737.19;5163493;27;989;-33
2021/09/21 00:39:50;;;;;;;;;;;;;;;29.96;42.48;100738.25;5164092;27;1897;-35
2021/09/21 00:42:21;;;;;;;;;;;;;;;29.95;42.34;100745.53;5164658;27;787;-34
2021/09/21 00:44:52;;;;;;;;;;;;;;;29.98;41.91;100747.03;5163859;27;767;-43
2021/09/21 00:47:17;;;;;;;;;;;;;;;29.96;42.16;100749.94;5145251;27;847;-45
2021/09/21 00:49:42;;;;;;;;;;;;;;;29.92;42.21;100752.22;5164189;27;1295;-35
2021/09/21 00:52:08;;;;;;;;;;;;;;;29.95;42.31;100745.53;5163475;27;846;-47
2021/09/21 00:54:33;;;;;;;;;;;;;;;29.94;42.15;100746.59;5164041;27;739;-34
2021/09/21 00:56:58;;;;;;;;;;;;;;;29.90;42.28;100746.16;5164259;27;799;-35
2021/09/21 00:59:24;;;;;;;;;;;;;;;30.03;42.00;100749.97;5144710;27;1917;-33
2021/09/21 01:01:49;;;;;;;;;;;;;;;30.03;41.90;100750.78;5164028;27;832;-34
2021/09/21 01:04:15;;;;;;;;;;;;;;;29.91;42.35;100749.72;5164144;27;826;-32
2021/09/21 01:06:43;;;;;;;;;;;;;;;30.00;41.97;100751.19;5163016;27;992;-34
2021/09/21 01:09:17;;;;;;;;;;;;;;;29.90;42.12;100757.00;5164013;27;807;-35
2021/09/21 01:11:49;;;;;;;;;;;;;;;30.03;41.84;100760.81;5163868;27;751;-34
2021/09/21 01:14:14;;;;;;;;;;;;;;;29.98;41.82;100750.56;5163457;27;814;-35
2021/09/21 01:16:40;;;;;;;;;;;;;;;29.97;41.97;100748.06;5160129;27;812;-37
2021/09/21 01:19:05;;;;;;;;;;;;;;;29.86;42.17;100755.75;5160629;27;759;-33
2021/09/21 01:21:30;;;;;;;;;;;;;;;29.89;42.02;100757.22;5159330;27;1967;-34
2021/09/21 01:23:55;;;;;;;;;;;;;;;29.91;42.15;100755.13;5160657;27;750;-36
2021/09/21 01:26:21;;;;;;;;;;;;;;;29.96;42.03;100754.53;5160431;27;759;-37
2021/09/21 01:28:46;;;;;;;;;;;;;;;29.81;42.37;100758.22;5159437;27;501;-34
2021/09/21 01:31:12;;;;;;;;;;;;;;;29.87;42.35;100752.00;5160645;27;797;-33
2021/09/21 01:33:37;;;;;;;;;;;;;;;29.92;42.20;100754.94;5160753;27;739;-44
2021/09/21 01:36:03;;;;;;;;;;;;;;;29.81;42.54;100767.19;5159881;27;1000;-33
2021/09/21 01:38:28;;;;;;;;;;;;;;;29.82;42.38;100765.31;5159646;27;980;-37
2021/09/21 01:40:53;;;;;;;;;;;;;;;29.76;42.45;100776.97;5160258;27;1910;-35
2021/09/21 01:43:18;;;;;;;;;;;;;;;29.86;42.52;100774.72;5159720;27;838;-46
2021/09/21 01:45:51;;;;;;;;;;;;;;;29.77;42.56;100773.22;5160220;27;759;-34
2021/09/21 01:48:16;;;;;;;;;;;;;;;29.86;41.97;100784.72;5159804;27;1017;-35
2021/09/21 01:53:21;;;;;;;;;;;;;;;29.76;42.42;100801.38;5159903;27;961;-39
2021/09/21 02:00:57;;;;;;;;;;;;;;;29.79;42.02;100801.81;5159716;27;1910;-35
2021/09/21 02:03:22;;;;;;;;;;;;;;;29.82;42.24;100804.13;5159425;27;763;-44
2021/09/21 02:05:47;;;;;;;;;;;;;;;29.89;41.92;100811.44;5159455;27;759;-46
2021/09/21 02:08:13;;;;;;;;;;;;;;;29.80;42.15;100817.03;5159634;27;993;-35
2021/09/21 02:10:38;;;;;;;;;;;;;;;29.81;42.08;100826.00;5159335;27;751;-34
2021/09/21 02:13:03;;;;;;;;;;;;;;;29.82;42.11;100820.38;5159283;27;893;-35
2021/09/21 02:15:31;;;;;;;;;;;;;;;29.80;42.29;100816.19;5159605;27;830;-36
2021/09/21 02:17:59;;;;;;;;;;;;;;;29.66;42.61;100815.28;5159784;27;733;-33
2021/09/21 02:20:24;;;;;;;;;;;;;;;29.80;42.34;100810.75;5159230;27;1970;-34
2021/09/21 02:22:49;;;;;;;;;;;;;;;29.66;42.93;100809.88;5158600;27;981;-34
2021/09/21 02:25:14;;;;;;;;;;;;;;;29.63;42.98;100818.41;5159343;27;751;-33
2021/09/21 02:27:40;;;;;;;;;;;;;;;29.69;42.91;100814.88;5158909;27;751;-35
2021/09/21 02:30:05;;;;;;;;;;;;;;;29.87;42.36;100833.34;5158866;27;905;-33
2021/09/21 02:32:30;;;;;;;;;;;;;;;29.85;42.51;100848.13;5158880;27;898;-41
2021/09/21 02:34:56;;;;;;;;;;;;;;;29.83;42.62;100861.88;5158769;27;806;-34
2021/09/21 02:37:21;;;;;;;;;;;;;;;29.74;42.54;100869.34;5158869;27;941;-34
2021/09/21 02:39:46;;;;;;;;;;;;;;;29.80;42.57;100884.81;5166998;27;1905;-34
2021/09/21 02:42:12;;;;;;;;;;;;;;;29.70;42.79;100882.47;5176342;27;826;-32
2021/09/21 02:44:37;;;;;;;;;;;;;;;29.75;42.63;100889.16;5158724;27;751;-34
2021/09/21 02:47:02;;;;;;;;;;;;;;;29.66;42.90;100892.00;5159043;27;811;-35
2021/09/21 02:49:28;;;;;;;;;;;;;;;29.62;42.84;100898.88;5164287;27;1128;-31
2021/09/21 02:51:53;;;;;;;;;;;;;;;29.61;42.93;100908.06;5170938;27;1007;-34
2021/09/21 02:54:18;;;;;;;;;;;;;;;29.69;42.74;100905.19;5158555;27;759;-45
2021/09/21 02:56:44;;;;;;;;;;;;;;;29.81;42.48;100924.44;5168084;27;882;-34
2021/09/21 02:59:09;;;;;;;;;;;;;;;29.86;42.36;100914.91;5158284;27;766;-39
2021/09/21 03:01:34;;;;;;;;;;;;;;;29.73;42.63;100921.88;5158525;27;1966;-34
2021/09/21 03:04:06;;;;;;;;;;;;;;;29.74;42.58;100920.00;5158706;27;766;-46
2021/09/21 03:06:35;;;;;;;;;;;;;;;29.81;42.50;100923.63;5157247;27;996;-36
2021/09/21 03:09:13;;;;;;;;;;;;;;;29.81;42.65;100924.44;5158408;27;823;-45
2021/09/21 03:17:19;;;;;;;;;;;;;;;29.85;42.27;100945.75;5161879;27;1506;-31
2021/09/21 03:19:45;;;;;;;;;;;;;;;29.03;40.58;100936.84;5157397;27;1909;-35
2021/09/21 03:22:10;;;;;;;;;;;;;;;29.42;37.53;100952.88;5158888;27;1417;-46
2021/09/21 03:24:35;;;;;;;;;;;;;;;29.44;39.06;100954.38;5158117;27;823;-35
2021/09/21 03:27:00;;;;;;;;;;;;;;;29.26;39.91;100954.78;5157735;27;885;-38
2021/09/21 03:29:27;;;;;;;;;;;;;;;29.26;40.50;100962.91;5158325;27;989;-36
2021/09/21 03:31:52;;;;;;;;;;;;;;;29.17;40.83;100967.66;5173057;27;1329;-32
2021/09/21 03:34:17;;;;;;;;;;;;;;;28.98;41.04;100968.25;5177746;27;783;-35
2021/09/21 03:36:42;;;;;;;;;;;;;;;29.23;40.69;100971.44;5172372;27;960;-35
2021/09/21 03:39:08;;;;;;;;;;;;;;;29.30;39.87;100963.38;5157729;27;836;-39
2021/09/21 03:41:33;;;;;;;;;;;;;;;27.72;37.50;100961.47;5156078;27;1893;-35
2021/09/21 03:43:58;;;;;;;;;;;;;;;26.92;37.80;100969.69;5176557;27;822;-40
2021/09/21 03:46:24;;;;;;;;;;;;;;;26.57;38.10;100975.41;5178718;27;973;-36
2021/09/21 03:48:49;;;;;;;;;;;;;;;26.57;37.92;100978.09;5178062;27;1136;-38
2021/09/21 03:51:14;;;;;;;;;;;;;;;26.44;37.08;100986.75;5163269;27;878;-36
2021/09/21 03:53:40;;;;;;;;;;;;;;;26.33;37.59;100992.47;5157810;27;909;-46
2021/09/21 03:56:05;;;;;;;;;;;;;;;26.38;36.97;100999.03;5157442;27;767;-35
2021/09/21 03:58:32;;;;;;;;;;;;;;;26.41;36.36;101020.28;5157846;27;832;-37
2021/09/21 04:01:01;;;;;;;;;;;;;;;26.49;37.97;101024.81;5156666;27;1909;-39
2021/09/21 04:03:26;;;;;;;;;;;;;;;27.14;38.49;101027.47;5157565;27;1164;-47
2021/09/21 04:05:51;;;;;;;;;;;;;;;27.57;38.56;101042.44;5157272;27;778;-36
2021/09/21 04:08:17;;;;;;;;;;;;;;;27.92;37.38;101044.75;5157601;27;941;-35
2021/09/21 04:10:42;;;;;;;;;;;;;;;28.23;36.07;101037.53;5157187;27;810;-37
2021/09/21 04:13:07;;;;;;;;;;;;;;;28.33;35.92;101037.31;5157144;27;843;-50
2021/09/21 04:15:32;;;;;;;;;;;;;;;28.23;35.71;101041.09;5157253;27;845;-35
2021/09/21 04:17:58;;;;;;;;;;;;;;;28.28;35.00;101042.44;5157657;27;751;-36
2021/09/21 04:20:23;;;;;;;;;;;;;;;28.30;34.17;101043.06;5157218;27;1901;-36
2021/09/21 04:22:48;;;;;;;;;;;;;;;28.41;34.05;101053.47;5156604;27;1133;-41
2021/09/21 04:25:14;;;;;;;;;;;;;;;28.34;33.49;101047.13;5157664;27;771;-38
2021/09/21 04:27:39;;;;;;;;;;;;;;;28.35;33.26;101055.06;5157757;27;807;-41
2021/09/21 04:30:05;;;;;;;;;;;;;;;28.50;32.98;101047.97;5157236;27;843;-42
2021/09/21 04:32:30;;;;;;;;;;;;;;;28.55;32.46;101059.06;5157553;27;835;-35
2021/09/21 04:34:55;;;;;;;;;;;;;;;28.43;32.84;101056.81;5157213;27;855;-36
2021/09/21 04:37:21;;;;;;;;;;;;;;;28.46;32.42;101063.75;5158162;27;790;-33
2021/09/21 04:39:46;;;;;;;;;;;;;;;28.46;31.97;101069.97;5157540;27;1897;-38
2021/09/21 04:42:12;;;;;;;;;;;;;;;28.58;31.40;101073.09;5157479;27;869;-39
2021/09/21 04:44:37;;;;;;;;;;;;;;;28.42;31.28;101059.72;5157764;27;731;-41
2021/09/21 04:47:03;;;;;;;;;;;;;;;28.40;31.14;101059.91;5157789;27;759;-37
2021/09/21 04:49:28;;;;;;;;;;;;;;;28.23;31.49;101073.56;5157373;27;1318;-45
2021/09/21 04:51:53;;;;;;;;;;;;;;;28.08;31.15;101062.69;5159669;27;758;-40
2021/09/21 04:54:19;;;;;;;;;;;;;;;27.91;31.45;101072.78;5160936;27;846;-41
2021/09/21 04:56:44;;;;;;;;;;;;;;;27.98;31.29;101086.44;5161333;27;758;-41
2021/09/21 04:59:09;;;;;;;;;;;;;;;27.84;31.68;101094.31;5161268;27;912;-36
2021/09/21 05:01:36;;;;;;;;;;;;;;;28.12;31.03;101090.22;5161175;27;1976;-35
2021/09/21 05:04:01;;;;;;;;;;;;;;;27.94;30.87;101088.69;5160790;27;843;-39
2021/09/21 05:06:26;;;;;;;;;;;;;;;27.84;30.97;101080.78;5161180;27;817;-36
2021/09/21 05:08:52;;;;;;;;;;;;;;;27.74;30.93;101077.50;5161124;27;885;-37
2021/09/21 05:11:17;;;;;;;;;;;;;;;27.67;30.89;101068.38;5161050;27;747;-37
2021/09/21 05:13:42;;;;;;;;;;;;;;;27.63;30.85;101074.16;5160943;27;743;-35
2021/09/21 05:16:07;;;;;;;;;;;;;;;27.40;30.95;101066.00;5160953;27;778;-37
2021/09/21 05:18:33;;;;;;;;;;;;;;;27.31;31.19;101088.69;5161267;27;826;-41
2021/09/21 05:20:58;;;;;;;;;;;;;;;27.22;31.74;101094.13;5160769;27;1897;-36
2021/09/21 05:23:23;;;;;;;;;;;;;;;27.36;31.31;101110.63;5161166;27;799;-35
2021/09/21 05:25:48;;;;;;;;;;;;;;;27.49;31.07;101110.84;5159983;27;1058;-37
2021/09/21 05:28:14;;;;;;;;;;;;;;;27.35;31.42;101120.56;5160238;27;964;-41
2021/09/21 05:30:39;;;;;;;;;;;;;;;27.29;31.38;101101.53;5160443;27;963;-44
2021/09/21 05:33:05;;;;;;;;;;;;;;;26.05;32.80;101112.28;5160434;27;778;-36
2021/09/21 05:35:30;;;;;;;;;;;;;;;25.55;34.04;101125.63;5160541;27;735;-37
2021/09/21 05:37:55;;;;;;;;;;;;;;;25.52;34.59;101128.66;5160531;27;759;-35
2021/09/21 05:40:22;;;;;;;;;;;;;;;25.42;34.04;101132.28;5155309;27;1894;-41
2021/09/21 05:42:47;;;;;;;;;;;;;;;24.99;35.37;101142.19;5158516;27;995;-42
2021/09/21 05:45:12;;;;;;;;;;;;;;;23.76;37.26;101147.13;5159580;27;1206;-41
2021/09/21 05:47:38;;;;;;;;;;;;;;;23.90;37.00;101154.69;5159744;27;810;-42
2021/09/21 05:50:04;;;;;;;;;;;;;;;25.71;35.18;101161.75;5159605;27;1209;-40
2021/09/21 05:52:29;;;;;;;;;;;;;;;26.60;33.93;101161.22;5153446;27;1075;-36
2021/09/21 05:54:55;;;;;;;;;;;;;;;26.97;33.84;101168.94;5159520;27;1881;-39
2021/09/21 05:57:24;;;;;;;;;;;;;;;27.03;34.49;101173.66;5160033;27;1134;-40
2021/09/21 05:59:49;;;;;;;;;;;;;;;27.25;34.94;101179.34;5159901;27;1988;-40
2021/09/21 06:02:14;;;;;;;;;;;;;;;27.34;35.21;101183.69;5159203;27;811;-40
2021/09/21 06:04:40;;;;;;;;;;;;;;;27.34;34.79;101190.97;5159609;27;841;-37
2021/09/21 06:07:05;;;;;;;;;;;;;;;27.38;34.84;101195.84;5153407;27;941;-35
2021/09/21 06:09:30;;;;;;;;;;;;;;;27.56;34.85;101197.47;5159551;27;813;-35
2021/09/21 06:11:55;;;;;;;;;;;;;;;27.71;35.18;101194.91;5159871;27;735;-37
2021/09/21 06:14:21;;;;;;;;;;;;;;;27.78;35.47;101199.63;5159366;27;818;-34
2021/09/21 06:16:46;;;;;;;;;;;;;;;27.85;35.84;101200.59;5159514;27;759;-35
2021/09/21 06:19:11;;;;;;;;;;;;;;;27.77;36.33;101203.31;5159500;27;862;-41
2021/09/21 06:21:36;;;;;;;;;;;;;;;27.86;36.22;101210.41;5159530;27;1902;-35
2021/09/21 06:24:02;;;;;;;;;;;;;;;27.92;36.55;101219.66;5159014;27;829;-35
2021/09/21 06:26:27;;;;;;;;;;;;;;;28.04;36.72;101214.69;5159214;27;996;-34
2021/09/21 06:28:52;;;;;;;;;;;;;;;28.08;36.61;101216.00;5159710;27;766;-35
2021/09/21 06:31:18;;;;;;;;;;;;;;;28.15;36.73;101216.13;5158628;27;762;-34
2021/09/21 06:33:43;;;;;;;;;;;;;;;28.15;36.94;101221.53;5159603;27;1075;-39
2021/09/21 06:36:09;;;;;;;;;;;;;;;28.05;36.97;101221.75;5156594;27;929;-34
2021/09/21 06:38:37;;;;;;;;;;;;;;;28.14;36.71;101218.00;5155127;27;763;-34
2021/09/21 06:41:02;;;;;;;;;;;;;;;28.22;36.99;101230.63;5159526;27;1913;-36
2021/09/21 06:43:28;;;;;;;;;;;;;;;28.24;37.24;101232.13;5158803;27;1439;-36
2021/09/21 06:45:55;;;;;;;;;;;;;;;28.32;37.42;101236.66;5158396;27;794;-36
2021/09/21 06:48:21;;;;;;;;;;;;;;;28.39;37.12;101231.41;5159209;27;778;-46
2021/09/21 06:50:46;;;;;;;;;;;;;;;28.44;37.21;101228.16;5159072;27;1109;-39
2021/09/21 06:53:11;;;;;;;;;;;;;;;28.52;37.15;101235.34;5158350;27;961;-38
2021/09/21 06:55:36;;;;;;;;;;;;;;;28.59;37.26;101236.31;5159005;27;881;-34
2021/09/21 06:58:02;;;;;;;;;;;;;;;28.54;37.25;101228.75;5159184;27;771;-45
2021/09/21 07:00:27;;;;;;;;;;;;;;;28.54;37.27;101242.28;5158015;27;1913;-35
2021/09/21 07:02:53;;;;;;;;;;;;;;;28.59;36.94;101244.44;5159288;27;770;-43
2021/09/21 07:05:19;;;;;;;;;;;;;;;28.57;37.18;101251.91;5158735;27;802;-36
2021/09/21 07:07:45;;;;;;;;;;;;;;;28.73;35.10;101250.91;5157926;27;1001;-36
2021/09/21 07:10:10;;;;;;;;;;;;;;;28.59;32.93;101252.56;5158793;27;808;-35
2021/09/21 07:12:36;;;;;;;;;;;;;;;28.44;32.47;101252.50;5140552;27;1371;-35
2021/09/21 07:15:01;;;;;;;;;;;;;;;28.39;31.78;101255.75;5157435;27;830;-40
2021/09/21 07:17:26;;;;;;;;;;;;;;;28.50;30.98;101253.63;5158670;27;811;-36
2021/09/21 07:19:52;;;;;;;;;;;;;;;28.43;30.70;101267.03;5158324;27;1905;-41
2021/09/21 07:22:17;;;;;;;;;;;;;;;28.12;31.94;101274.13;5157486;27;1008;-36
2021/09/21 07:24:42;;;;;;;;;;;;;;;28.08;32.64;101260.13;5158071;27;790;-46
2021/09/21 07:27:08;;;;;;;;;;;;;;;28.22;31.88;101269.34;5158174;27;846;-38
2021/09/21 07:29:33;;;;;;;;;;;;;;;28.46;30.63;101264.00;5157963;27;798;-39
2021/09/21 07:31:58;;;;;;;;;;;;;;;28.60;29.84;101252.38;5158482;27;755;-54
2021/09/21 07:34:23;;;;;;;;;;;;;;;28.79;29.12;101262.91;5157964;27;1114;-39
2021/09/21 07:36:52;;;;;;;;;;;;;;;28.83;28.56;101254.22;5156948;27;905;-38
2021/09/21 07:39:17;;;;;;;;;;;;;;;28.70;28.39;101259.41;5158343;27;889;-37
2021/09/21 07:41:43;;;;;;;;;;;;;;;28.63;29.21;101250.34;5158283;27;1901;-36
2021/09/21 07:44:09;;;;;;;;;;;;;;;28.71;29.03;101259.22;5157720;27;795;-36
2021/09/21 07:46:34;;;;;;;;;;;;;;;28.85;29.47;101263.00;5157947;27;807;-38
2021/09/21 07:49:00;;;;;;;;;;;;;;;28.95;30.83;101268.16;5157879;27;1037;-38
2021/09/21 07:51:25;;;;;;;;;;;;;;;29.07;31.66;101270.47;5157175;27;969;-38
2021/09/21 07:53:50;;;;;;;;;;;;;;;29.09;32.17;101277.38;5158397;27;802;-35
2021/09/21 07:56:15;;;;;;;;;;;;;;;29.20;32.51;101278.81;5157869;27;763;-34
2021/09/21 07:58:41;;;;;;;;;;;;;;;29.33;32.51;101278.16;5157637;27;775;-35
2021/09/21 08:01:06;;;;;;;;;;;;;;;29.33;32.91;101275.44;5157713;27;1909;-37
2021/09/21 08:03:31;;;;;;;;;;;;;;;29.43;32.94;101279.75;5157825;27;850;-37
2021/09/21 08:05:57;;;;;;;;;;;;;;;29.56;32.79;101277.22;5157774;27;743;-34
2021/09/21 08:08:22;;;;;;;;;;;;;;;29.66;33.09;101271.56;5157108;27;988;-38
2021/09/21 08:10:47;;;;;;;;;;;;;;;29.73;33.38;101276.25;5157817;27;745;-36
2021/09/21 08:13:13;;;;;;;;;;;;;;;29.89;33.30;101286.03;5157838;27;798;-41
2021/09/21 08:15:38;;;;;;;;;;;;;;;29.78;33.60;101276.53;5156608;27;855;-37
2021/09/21 08:18:06;;;;;;;;;;;;;;;29.73;33.85;101279.78;5157624;27;847;-37
2021/09/21 08:20:32;;;;;;;;;;;;;;;29.72;33.63;101286.25;5157794;27;1964;-37
2021/09/21 08:22:57;;;;;;;;;;;;;;;28.99;29.79;101286.78;5157316;27;1016;-36
2021/09/21 08:25:22;;;;;;;;;;;;;;;27.87;29.06;101290.47;5158890;27;806;-37
2021/09/21 08:27:48;;;;;;;;;;;;;;;27.37;28.75;101285.19;5161410;27;1421;-37
2021/09/21 08:30:13;;;;;;;;;;;;;;;27.60;28.55;101289.84;5154343;27;1094;-37
2021/09/21 08:32:39;;;;;;;;;;;;;;;27.59;26.93;101286.28;5140482;27;1144;-32
2021/09/21 08:35:04;;;;;;;;;;;;;;;27.81;26.86;101291.19;5140735;27;1071;-39
2021/09/21 08:37:29;;;;;;;;;;;;;;;27.95;26.63;101293.16;5140119;27;941;-38
2021/09/21 08:39:55;;;;;;;;;;;;;;;27.95;26.53;101287.72;5139457;27;1898;-43
2021/09/21 08:42:20;;;;;;;;;;;;;;;27.95;27.29;101279.63;5140619;27;918;-41
2021/09/21 08:44:45;;;;;;;;;;;;;;;27.92;26.65;101288.09;5122130;27;759;-43
2021/09/21 08:47:10;;;;;;;;;;;;;;;27.68;27.82;101291.69;5122142;27;763;-43
2021/09/21 08:49:36;;;;;;;;;;;;;;;27.99;27.07;101288.22;5150111;27;1490;-42
2021/09/21 08:52:01;;;;;;;;;;;;;;;27.77;26.37;101293.38;5150888;27;1039;-42
2021/09/21 08:54:27;;;;;;;;;;;;;;;27.58;27.00;101286.47;5140399;27;787;-42
2021/09/21 08:56:55;;;;;;;;;;;;;;;27.79;26.06;101298.63;5140306;27;799;-42
2021/09/21 08:59:30;;;;;;;;;;;;;;;27.36;26.05;101286.22;5140352;27;802;-42
2021/09/21 09:01:55;;;;;;;;;;;;;;;27.31;25.53;101285.88;5140300;27;846;-42
2021/09/21 09:04:21;;;;;;;;;;;;;;;27.99;29.15;101291.75;5141141;27;759;-42
2021/09/21 09:06:47;;;;;;;;;;;;;;;27.80;27.33;101289.47;5139306;27;985;-43
2021/09/21 09:09:13;;;;;;;;;;;;;;;26.73;27.16;101282.16;5140651;27;795;-42
2021/09/21 09:11:38;;;;;;;;;;;;;;;27.42;26.92;101277.41;5140476;27;852;-43
2021/09/21 09:14:03;;;;;;;;;;;;;;;27.17;27.41;101287.41;5121497;27;764;-42
2021/09/21 09:16:36;;;;;;;;;;;;;;;26.95;26.86;101290.59;5140043;27;764;-40
2021/09/21 09:19:01;;;;;;;;;;;;;;;26.63;27.22;101290.41;5140317;27;820;-43
2021/09/21 09:21:26;;;;;;;;;;;;;;;26.21;26.88;101288.59;5138754;27;1913;-42
2021/09/21 09:23:52;;;;;;;;;;;;;;;26.38;27.15;101287.66;5139791;27;870;-43
2021/09/21 09:26:18;;;;;;;;;;;;;;;26.32;27.50;101290.13;5140297;27;759;-42
2021/09/21 09:28:43;;;;;;;;;;;;;;;27.01;26.92;101289.94;5139564;27;742;-42
2021/09/21 09:31:09;;;;;;;;;;;;;;;26.94;27.07;101301.56;5139786;27;752;-42
2021/09/21 09:33:36;;;;;;;;;;;;;;;27.04;26.57;101301.41;5139830;27;1106;-44
2021/09/21 09:36:01;;;;;;;;;;;;;;;27.02;26.35;101307.84;5150287;27;957;-41
2021/09/21 09:38:26;;;;;;;;;;;;;;;26.85;26.46;101298.84;5138906;27;935;-40
2021/09/21 09:40:52;;;;;;;;;;;;;;;26.68;27.57;101310.63;5139517;27;1966;-42
2021/09/21 09:43:19;;;;;;;;;;;;;;;26.89;27.90;101310.16;5139327;27;863;-42
2021/09/21 09:45:45;;;;;;;;;;;;;;;26.84;27.51;101304.44;5139682;27;751;-43
2021/09/21 09:48:12;;;;;;;;;;;;;;;26.85;28.20;101319.59;5139535;27;813;-42
2021/09/21 09:50:42;;;;;;;;;;;;;;;26.97;27.35;101320.13;5157085;27;1054;-42
2021/09/21 09:53:20;;;;;;;;;;;;;;;26.78;28.08;101316.72;5159797;27;961;-40
2021/09/21 09:55:46;;;;;;;;;;;;;;;26.69;28.67;101329.38;5160584;27;819;-41
2021/09/21 09:58:12;;;;;;;;;;;;;;;26.88;28.10;101325.50;5159297;27;766;-42
2021/09/21 10:00:37;;;;;;;;;;;;;;;26.74;28.29;101329.69;5160179;27;1913;-42
2021/09/21 10:03:03;;;;;;;;;;;;;;;26.87;28.43;101331.94;5160152;27;806;-42
2021/09/21 10:05:29;;;;;;;;;;;;;;;26.90;28.83;101333.44;5141110;27;850;-42
2021/09/21 10:07:54;;;;;;;;;;;;;;;26.97;29.14;101334.47;5159595;27;1021;-42
2021/09/21 10:10:24;;;;;;;;;;;;;;;27.01;28.56;101341.25;5159937;27;834;-40
2021/09/21 10:12:49;;;;;;;;;;;;;;;26.70;29.01;101343.69;5159816;27;770;-38
2021/09/21 10:15:15;;;;;;;;;;;;;;;26.41;28.24;101343.97;5159879;27;810;-38
2021/09/21 10:17:50;;;;;;;;;;;;;;;25.95;28.32;101343.41;5159628;27;747;-38
2021/09/21 10:20:15;;;;;;;;;;;;;;;26.44;28.39;101348.22;5159587;27;1922;-38
2021/09/21 10:22:41;;;;;;;;;;;;;;;26.44;27.57;101342.81;5159231;27;969;-38
2021/09/21 10:25:11;;;;;;;;;;;;;;;26.53;28.44;101340.97;5159620;27;734;-44
2021/09/21 10:27:36;;;;;;;;;;;;;;;26.49;27.90;101347.72;5159481;27;767;-34
2021/09/21 10:30:06;;;;;;;;;;;;;;;26.46;28.91;101350.75;5159940;27;755;-39
2021/09/21 10:32:40;;;;;;;;;;;;;;;26.57;27.69;101349.56;5159243;27;797;-40
2021/09/21 10:35:09;;;;;;;;;;;;;;;26.57;28.02;101345.03;5159336;27;1070;-41
2021/09/21 10:37:34;;;;;;;;;;;;;;;26.44;28.04;101345.50;5159085;27;929;-42
2021/09/21 10:40:00;;;;;;;;;;;;;;;26.70;27.95;101344.56;5159200;27;1886;-39
2021/09/21 10:42:26;;;;;;;;;;;;;;;26.59;27.65;101345.69;5159003;27;1537;-38
2021/09/21 10:44:52;;;;;;;;;;;;;;;26.62;27.49;101345.38;5159662;27;814;-41
2021/09/21 10:47:21;;;;;;;;;;;;;;;26.62;27.81;101352.63;5139402;27;826;-40
2021/09/21 10:49:46;;;;;;;;;;;;;;;26.60;27.50;101350.09;5158474;27;1257;-38
2021/09/21 10:52:12;;;;;;;;;;;;;;;26.29;27.56;101354.19;5140283;27;965;-42
2021/09/21 10:54:38;;;;;;;;;;;;;;;26.64;27.22;101356.84;5158940;27;829;-43
2021/09/21 10:57:10;;;;;;;;;;;;;;;26.92;26.82;101347.63;5158806;27;747;-44
2021/09/21 10:59:36;;;;;;;;;;;;;;;26.61;26.96;101335.59;5158622;27;2003;-40
2021/09/21 11:02:03;;;;;;;;;;;;;;;26.40;27.72;101333.34;5158824;27;755;-40
2021/09/21 11:04:49;;;;;;;;;;;;;;;26.65;27.32;101342.34;5158552;27;877;-39
2021/09/21 11:07:14;;;;;;;;;;;;;;;26.70;27.27;101344.56;5158060;27;1613;-39
2021/09/21 11:09:40;;;;;;;;;;;;;;;26.99;26.85;101350.50;5158514;27;771;-39
2021/09/21 11:12:08;;;;;;;;;;;;;;;26.65;27.09;101347.75;5158413;27;832;-39
2021/09/21 11:14:37;;;;;;;;;;;;;;;26.64;27.17;101351.44;5158668;27;743;-38
2021/09/21 11:17:03;;;;;;;;;;;;;;;26.80;27.10;101357.03;5158635;27;757;-41
2021/09/21 11:19:29;;;;;;;;;;;;;;;26.93;26.70;101345.75;5157870;27;944;-38
2021/09/21 11:21:58;;;;;;;;;;;;;;;26.78;26.54;101346.41;5157621;27;1960;-39
2021/09/21 11:24:23;;;;;;;;;;;;;;;26.72;26.67;101347.94;5158356;27;824;-41
2021/09/21 11:26:56;;;;;;;;;;;;;;;26.52;26.22;101352.78;5158004;27;865;-41
2021/09/21 11:29:21;;;;;;;;;;;;;;;26.87;26.07;101341.88;5158239;27;854;-40
2021/09/21 11:31:48;;;;;;;;;;;;;;;26.93;25.84;101351.16;5158928;27;755;-39
2021/09/21 11:34:14;;;;;;;;;;;;;;;26.89;25.76;101354.19;5145217;27;1548;-41
2021/09/21 11:36:41;;;;;;;;;;;;;;;26.50;25.63;101350.25;5137242;27;938;-41
2021/09/21 11:39:06;;;;;;;;;;;;;;;26.53;26.75;101352.59;5119352;27;741;-40
2021/09/21 11:41:31;;;;;;;;;;;;;;;26.54;26.60;101342.66;5136931;27;1901;-40
2021/09/21 11:44:00;;;;;;;;;;;;;;;26.51;26.72;101340.28;5137268;27;751;-40
2021/09/21 11:46:31;;;;;;;;;;;;;;;26.64;26.78;101337.13;5137269;27;818;-38
2021/09/21 11:48:58;;;;;;;;;;;;;;;26.86;26.13;101337.50;5140307;27;1211;-41
2021/09/21 11:51:24;;;;;;;;;;;;;;;26.93;26.07;101341.19;5157555;27;957;-42
2021/09/21 11:53:50;;;;;;;;;;;;;;;26.79;26.65;101331.94;5139325;27;842;-37
2021/09/21 12:21:13;;;;;;;;;;;;;;;26.79;27.51;101315.72;5157558;27;1886;-38
2021/09/21 12:23:40;;;;;;;;;;;;;;;26.79;26.42;101313.03;5092979;28;1115;-37
2021/09/21 12:26:05;;;;;;;;;;;;;;;26.66;27.48;101310.78;5136384;28;815;-43
2021/09/21 12:28:31;;;;;;;;;;;;;;;26.88;27.02;101306.63;5137081;28;850;-38
2021/09/21 12:30:57;;;;;;;;;;;;;;;27.23;26.80;101309.16;5136578;28;794;-35
2021/09/21 12:33:23;;;;;;;;;;;;;;;27.25;25.92;101303.59;5141936;27;1178;-41
2021/09/21 12:35:49;;;;;;;;;;;;;;;27.28;26.21;101313.22;5158029;27;743;-43
2021/09/21 12:38:17;;;;;;;;;;;;;;;27.33;26.57;101310.84;5157334;27;982;-36
2021/09/21 12:40:55;;;;;;;;;;;;;;;27.11;26.48;101308.66;5156748;27;1909;-39
2021/09/21 12:43:22;;;;;;;;;;;;;;;27.00;26.77;101307.13;5157322;27;865;-41
2021/09/21 12:45:48;;;;;;;;;;;;;;;26.95;26.65;101314.03;5157050;27;842;-43
2021/09/21 12:48:14;;;;;;;;;;;;;;;27.07;25.54;101310.03;5157284;27;842;-41
2021/09/21 12:50:40;;;;;;;;;;;;;;;27.25;26.24;101309.00;5157174;27;1106;-46
2021/09/21 12:53:15;;;;;;;;;;;;;;;27.39;26.09;101299.38;5157501;27;977;-42
2021/09/21 12:55:42;;;;;;;;;;;;;;;27.13;26.66;101305.78;5156801;27;818;-38
2021/09/21 12:58:08;;;;;;;;;;;;;;;27.63;27.02;101298.47;5156944;27;899;-39
2021/09/21 13:00:37;;;;;;;;;;;;;;;28.18;28.91;101308.59;5157577;27;1910;-56
2021/09/21 13:03:04;;;;;;;;;;;;;;;28.40;30.23;101318.81;5156916;27;835;-36
2021/09/21 13:05:29;;;;;;;;;;;;;;;28.52;29.11;101324.66;5157339;27;828;-39
2021/09/21 13:07:54;;;;;;;;;;;;;;;28.54;28.79;101317.22;5157257;27;949;-37
2021/09/21 13:10:19;;;;;;;;;;;;;;;28.62;30.13;101310.91;5156888;27;767;-45
2021/09/21 13:12:52;;;;;;;;;;;;;;;28.62;31.33;101306.34;5159094;27;790;-40
2021/09/21 13:15:17;;;;;;;;;;;;;;;28.68;31.61;101305.59;5161379;27;778;-43
2021/09/21 13:17:43;;;;;;;;;;;;;;;28.75;31.63;101307.59;5160640;27;755;-37
2021/09/21 13:20:08;;;;;;;;;;;;;;;28.58;31.09;101310.41;5160648;27;1968;-44
2021/09/21 13:22:33;;;;;;;;;;;;;;;28.63;32.12;101315.31;5160290;27;952;-41
2021/09/21 13:24:59;;;;;;;;;;;;;;;28.53;32.41;101307.44;5160697;27;828;-39
2021/09/21 13:27:30;;;;;;;;;;;;;;;28.60;32.39;101311.06;5160818;27;830;-39